createdAt,value
2023-05-09T00:00:58.796Z,0.00
2023-05-09T00:01:58.839Z,0.00
2023-05-09T00:02:58.853Z,0.00
2023-05-09T00:03:59.750Z,0.00
2023-05-09T00:04:58.817Z,0.00
2023-05-09T00:05:58.830Z,0.00
2023-05-09T00:06:58.847Z,0.00
2023-05-09T00:07:58.874Z,1.23
2023-05-09T00:08:58.858Z,21.32
2023-05-09T00:09:58.872Z,25.00
2023-05-09T00:10:59.000Z,25.27
2023-05-09T00:11:58.882Z,25.77
2023-05-09T00:12:58.991Z,25.67
2023-05-09T00:13:58.904Z,25.00
2023-05-09T00:14:58.913Z,25.21
2023-05-09T00:15:58.932Z,25.24
2023-05-09T00:16:58.982Z,25.84
2023-05-09T00:17:59.003Z,25.82
2023-05-09T00:18:58.961Z,25.00
2023-05-09T00:19:58.969Z,25.14
2023-05-09T00:20:58.986Z,26.03
2023-05-09T00:21:58.996Z,26.16
2023-05-09T00:22:59.027Z,26.38
2023-05-09T00:23:59.015Z,27.55
2023-05-09T00:24:59.043Z,25.78
2023-05-09T00:25:59.043Z,25.86
2023-05-09T00:26:59.177Z,25.69
2023-05-09T00:27:59.081Z,26.31
2023-05-09T00:28:59.086Z,26.03
2023-05-09T00:29:59.088Z,25.00
2023-05-09T00:30:59.098Z,25.85
2023-05-09T00:31:59.164Z,26.40
2023-05-09T00:32:59.164Z,26.31
2023-05-09T00:33:59.132Z,25.73
2023-05-09T00:34:59.149Z,26.28
2023-05-09T00:35:59.160Z,25.93
2023-05-09T00:36:59.175Z,26.49
2023-05-09T00:37:59.248Z,26.76
2023-05-09T00:38:59.270Z,26.77
2023-05-09T00:39:59.321Z,25.98
2023-05-09T00:40:59.361Z,27.31
2023-05-09T00:41:59.422Z,27.60
2023-05-09T00:42:59.573Z,26.12
2023-05-09T00:43:59.493Z,25.93
2023-05-09T00:44:59.546Z,25.21
2023-05-09T00:45:59.625Z,25.78
2023-05-09T00:46:59.641Z,25.00
2023-05-09T00:47:59.782Z,26.03
2023-05-09T00:48:59.712Z,26.35
2023-05-09T00:49:59.754Z,25.32
2023-05-09T00:50:59.827Z,25.73
2023-05-09T00:51:59.830Z,26.68
2023-05-09T00:52:59.877Z,26.26
2023-05-09T00:53:59.919Z,25.00
2023-05-09T00:54:59.968Z,26.37
2023-05-09T00:56:00.026Z,25.11
2023-05-09T00:57:00.058Z,26.45
2023-05-09T00:58:00.150Z,26.56
2023-05-09T00:59:00.296Z,26.96
2023-05-09T01:00:00.224Z,25.83
2023-05-09T01:01:00.281Z,26.24
2023-05-09T01:02:00.310Z,26.13
2023-05-09T01:03:00.454Z,27.10
2023-05-09T01:04:00.387Z,26.44
2023-05-09T01:05:00.451Z,25.55
2023-05-09T01:06:00.486Z,25.82
2023-05-09T01:07:00.536Z,27.68
2023-05-09T01:08:00.588Z,27.63
2023-05-09T01:09:00.640Z,25.79
2023-05-09T01:10:00.677Z,26.11
2023-05-09T01:11:00.733Z,26.47
2023-05-09T01:12:00.781Z,27.02
2023-05-09T01:13:00.879Z,26.11
2023-05-09T01:14:00.886Z,26.06
2023-05-09T01:15:01.071Z,26.07
2023-05-09T01:16:01.010Z,27.00
2023-05-09T01:17:01.035Z,25.40
2023-05-09T01:18:01.116Z,26.30
2023-05-09T01:19:01.160Z,26.58
2023-05-09T01:20:01.210Z,25.00
2023-05-09T01:21:01.231Z,27.38
2023-05-09T01:22:01.273Z,26.68
2023-05-09T01:23:01.331Z,26.81
2023-05-09T01:24:01.365Z,26.66
2023-05-09T01:25:01.426Z,25.23
2023-05-09T01:26:01.473Z,26.01
2023-05-09T01:27:01.521Z,26.84
2023-05-09T01:28:01.559Z,25.48
2023-05-09T01:29:01.616Z,26.58
2023-05-09T01:30:01.662Z,26.58
2023-05-09T01:31:01.846Z,26.47
2023-05-09T01:32:01.758Z,27.44
2023-05-09T01:33:01.864Z,28.22
2023-05-09T01:34:01.850Z,26.53
2023-05-09T01:35:01.893Z,26.55
2023-05-09T01:36:01.930Z,25.49
2023-05-09T01:37:01.983Z,26.48
2023-05-09T01:38:02.017Z,27.11
2023-05-09T01:39:02.081Z,27.22
2023-05-09T01:40:02.130Z,27.85
2023-05-09T01:41:02.195Z,27.04
2023-05-09T01:42:02.232Z,27.59
2023-05-09T01:43:02.289Z,26.28
2023-05-09T01:44:02.389Z,28.76
2023-05-09T01:45:02.391Z,25.64
2023-05-09T01:46:02.464Z,26.76
2023-05-09T01:47:02.636Z,26.77
2023-05-09T01:48:02.599Z,28.77
2023-05-09T01:49:02.596Z,25.80
2023-05-09T01:50:02.651Z,26.18
2023-05-09T01:51:02.692Z,27.02
2023-05-09T01:52:02.760Z,25.40
2023-05-09T01:53:02.803Z,27.10
2023-05-09T01:54:02.854Z,26.45
2023-05-09T01:55:02.909Z,26.96
2023-05-09T01:56:02.956Z,26.40
2023-05-09T01:57:03.005Z,29.01
2023-05-09T01:58:03.060Z,27.55
2023-05-09T01:59:03.112Z,26.29
2023-05-09T02:00:03.166Z,27.79
2023-05-09T02:01:03.378Z,29.16
2023-05-09T02:02:03.385Z,27.12
2023-05-09T02:03:03.470Z,29.02
2023-05-09T02:04:03.351Z,27.12
2023-05-09T02:05:03.399Z,26.75
2023-05-09T02:06:03.449Z,26.40
2023-05-09T02:07:03.507Z,27.35
2023-05-09T02:08:03.559Z,25.36
2023-05-09T02:09:03.640Z,28.76
2023-05-09T02:10:03.675Z,27.52
2023-05-09T02:11:03.721Z,26.77
2023-05-09T02:12:03.761Z,27.16
2023-05-09T02:13:03.860Z,27.65
2023-05-09T02:14:03.867Z,26.57
2023-05-09T02:15:03.920Z,27.37
2023-05-09T02:16:03.964Z,27.66
2023-05-09T02:17:04.067Z,25.97
2023-05-09T02:18:04.092Z,27.94
2023-05-09T02:19:04.246Z,28.01
2023-05-09T02:20:04.168Z,28.39
2023-05-09T02:21:04.259Z,26.76
2023-05-09T02:22:04.267Z,29.13
2023-05-09T02:23:04.344Z,28.56
2023-05-09T02:24:04.363Z,27.09
2023-05-09T02:25:04.410Z,28.54
2023-05-09T02:26:04.462Z,25.44
2023-05-09T02:27:04.574Z,26.73
2023-05-09T02:28:04.592Z,27.39
2023-05-09T02:29:04.629Z,25.50
2023-05-09T02:30:04.661Z,25.00
2023-05-09T02:31:04.713Z,26.48
2023-05-09T02:32:04.781Z,28.88
2023-05-09T02:33:04.928Z,29.11
2023-05-09T02:34:04.873Z,28.68
2023-05-09T02:35:05.044Z,27.44
2023-05-09T02:36:04.967Z,26.90
2023-05-09T02:37:05.026Z,25.99
2023-05-09T02:38:05.068Z,25.25
2023-05-09T02:39:05.120Z,25.52
2023-05-09T02:40:05.168Z,26.65
2023-05-09T02:41:05.217Z,27.06
2023-05-09T02:42:05.278Z,25.00
2023-05-09T02:43:05.315Z,25.97
2023-05-09T02:44:05.449Z,27.75
2023-05-09T02:45:05.421Z,26.34
2023-05-09T02:46:05.518Z,26.18
2023-05-09T02:47:05.534Z,26.90
2023-05-09T02:48:08.342Z,27.18
2023-05-09T02:49:05.567Z,27.35
2023-05-09T02:50:05.578Z,27.51
2023-05-09T02:51:05.691Z,25.27
2023-05-09T02:52:05.554Z,26.37
2023-05-09T02:53:05.580Z,26.95
2023-05-09T02:54:05.612Z,25.56
2023-05-09T02:55:05.544Z,26.62
2023-05-09T02:56:05.530Z,25.79
2023-05-09T02:57:05.530Z,26.74
2023-05-09T02:58:12.911Z,25.54
2023-05-09T02:59:05.515Z,25.93
2023-05-09T03:00:05.503Z,26.91
2023-05-09T03:01:05.535Z,26.53
2023-05-09T03:02:05.491Z,28.68
2023-05-09T03:03:05.545Z,29.37
2023-05-09T03:04:05.456Z,27.40
2023-05-09T03:05:05.454Z,26.23
2023-05-09T03:06:05.456Z,27.97
2023-05-09T03:07:05.468Z,26.96
2023-05-09T03:08:05.445Z,25.15
2023-05-09T03:09:05.433Z,27.02
2023-05-09T03:10:05.432Z,27.43
2023-05-09T03:11:05.420Z,26.61
2023-05-09T03:12:05.421Z,28.28
2023-05-09T03:13:05.466Z,28.39
2023-05-09T03:14:05.422Z,27.68
2023-05-09T03:15:05.398Z,27.73
2023-05-09T03:16:05.443Z,27.23
2023-05-09T03:17:05.400Z,26.37
2023-05-09T03:18:05.445Z,27.04
2023-05-09T03:19:05.383Z,27.31
2023-05-09T03:20:05.365Z,25.00
2023-05-09T03:21:05.364Z,28.03
2023-05-09T03:22:05.346Z,28.01
2023-05-09T03:23:05.484Z,27.52
2023-05-09T03:24:05.366Z,27.08
2023-05-09T03:25:05.371Z,27.52
2023-05-09T03:26:05.421Z,26.47
2023-05-09T03:27:05.483Z,26.80
2023-05-09T03:28:05.536Z,27.53
2023-05-09T03:29:05.597Z,26.11
2023-05-09T03:30:05.656Z,26.69
2023-05-09T03:31:05.772Z,26.77
2023-05-09T03:32:05.819Z,28.23
2023-05-09T03:33:05.862Z,27.92
2023-05-09T03:34:05.870Z,27.05
2023-05-09T03:35:05.932Z,29.01
2023-05-09T03:36:05.995Z,28.20
2023-05-09T03:37:06.037Z,27.86
2023-05-09T03:38:06.059Z,27.58
2023-05-09T03:39:06.299Z,26.41
2023-05-09T03:40:06.102Z,27.88
2023-05-09T03:41:06.131Z,29.91
2023-05-09T03:42:06.160Z,26.46
2023-05-09T03:43:06.188Z,26.32
2023-05-09T03:44:06.280Z,25.52
2023-05-09T03:45:06.325Z,27.73
2023-05-09T03:46:06.308Z,28.44
2023-05-09T03:47:06.516Z,27.10
2023-05-09T03:48:06.414Z,26.81
2023-05-09T03:49:06.340Z,27.23
2023-05-09T03:50:06.377Z,26.89
2023-05-09T03:51:06.455Z,26.27
2023-05-09T03:52:06.397Z,25.00
2023-05-09T03:53:06.428Z,28.51
2023-05-09T03:54:06.510Z,27.51
2023-05-09T03:55:06.612Z,27.95
2023-05-09T03:56:06.518Z,26.00
2023-05-09T03:57:06.546Z,27.13
2023-05-09T03:58:06.552Z,27.60
2023-05-09T03:59:06.579Z,28.60
2023-05-09T04:00:06.630Z,28.64
2023-05-09T04:01:06.616Z,28.88
2023-05-09T04:02:06.714Z,26.58
2023-05-09T04:03:06.710Z,29.30
2023-05-09T04:04:06.764Z,27.90
2023-05-09T04:05:06.704Z,28.46
2023-05-09T04:06:06.736Z,27.11
2023-05-09T04:07:06.748Z,27.35
2023-05-09T04:08:06.773Z,27.11
2023-05-09T04:09:06.800Z,27.16
2023-05-09T04:10:06.824Z,26.89
2023-05-09T04:11:06.975Z,28.07
2023-05-09T04:12:06.867Z,26.67
2023-05-09T04:13:06.937Z,26.88
2023-05-09T04:14:06.986Z,26.45
2023-05-09T04:15:06.952Z,26.29
2023-05-09T04:16:06.992Z,26.56
2023-05-09T04:17:07.026Z,26.30
2023-05-09T04:18:07.038Z,26.95
2023-05-09T04:19:07.050Z,26.93
2023-05-09T04:20:07.073Z,25.00
2023-05-09T04:21:07.089Z,27.55
2023-05-09T04:22:07.130Z,27.69
2023-05-09T04:23:07.151Z,29.43
2023-05-09T04:24:07.160Z,26.18
2023-05-09T04:25:07.190Z,26.93
2023-05-09T04:26:07.201Z,25.48
2023-05-09T04:27:07.342Z,28.99
2023-05-09T04:28:07.248Z,26.39
2023-05-09T04:29:07.269Z,27.63
2023-05-09T04:30:07.305Z,27.69
2023-05-09T04:31:07.413Z,27.23
2023-05-09T04:32:07.399Z,27.02
2023-05-09T04:33:07.411Z,27.69
2023-05-09T04:34:07.404Z,29.31
2023-05-09T04:35:07.419Z,27.19
2023-05-09T04:36:07.443Z,28.22
2023-05-09T04:37:07.464Z,28.10
2023-05-09T04:38:07.497Z,27.57
2023-05-09T04:39:07.583Z,27.29
2023-05-09T04:40:07.542Z,26.32
2023-05-09T04:41:07.573Z,27.65
2023-05-09T04:42:07.636Z,28.50
2023-05-09T04:43:07.754Z,28.01
2023-05-09T04:44:07.656Z,26.62
2023-05-09T04:45:07.676Z,26.26
2023-05-09T04:46:07.787Z,26.19
2023-05-09T04:47:07.723Z,27.96
2023-05-09T04:48:07.905Z,28.17
2023-05-09T04:49:07.770Z,26.09
2023-05-09T04:50:07.799Z,26.23
2023-05-09T04:51:07.828Z,25.65
2023-05-09T04:52:07.842Z,26.72
2023-05-09T04:53:07.870Z,25.00
2023-05-09T04:54:07.888Z,25.00
2023-05-09T04:55:07.920Z,27.91
2023-05-09T04:56:07.944Z,26.65
2023-05-09T04:57:17.300Z,26.83
2023-05-09T04:58:07.968Z,27.06
2023-05-09T04:59:08.134Z,27.95
2023-05-09T05:00:08.002Z,27.83
2023-05-09T05:01:07.978Z,27.40
2023-05-09T05:02:08.064Z,29.53
2023-05-09T05:03:08.012Z,28.06
2023-05-09T05:04:08.111Z,27.30
2023-05-09T05:05:12.082Z,26.89
2023-05-09T05:06:07.960Z,27.30
2023-05-09T05:07:07.955Z,28.07
2023-05-09T05:08:07.965Z,28.53
2023-05-09T05:09:07.945Z,29.21
2023-05-09T05:10:07.949Z,28.90
2023-05-09T05:11:07.927Z,27.39
2023-05-09T05:12:09.264Z,25.73
2023-05-09T05:13:07.982Z,25.89
2023-05-09T05:14:07.917Z,26.48
2023-05-09T05:15:08.074Z,26.20
2023-05-09T05:16:07.972Z,26.38
2023-05-09T05:17:07.901Z,25.71
2023-05-09T05:18:07.939Z,26.09
2023-05-09T05:19:08.048Z,26.19
2023-05-09T05:20:07.887Z,27.72
2023-05-09T05:21:07.899Z,25.91
2023-05-09T05:22:07.885Z,28.20
2023-05-09T05:23:08.071Z,25.00
2023-05-09T05:24:07.889Z,27.88
2023-05-09T05:25:07.879Z,26.78
2023-05-09T05:26:07.883Z,28.15
2023-05-09T05:27:08.542Z,28.30
2023-05-09T05:28:07.893Z,25.00
2023-05-09T05:29:07.891Z,25.14
2023-05-09T05:30:07.898Z,29.17
2023-05-09T05:31:08.039Z,27.02
2023-05-09T05:32:08.051Z,26.45
2023-05-09T05:33:07.996Z,27.34
2023-05-09T05:34:07.886Z,27.58
2023-05-09T05:35:07.913Z,27.12
2023-05-09T05:36:07.893Z,26.77
2023-05-09T05:37:07.892Z,27.47
2023-05-09T05:38:08.051Z,26.39
2023-05-09T05:39:07.869Z,26.74
2023-05-09T05:40:07.881Z,31.26
2023-05-09T05:41:07.861Z,37.99
2023-05-09T05:42:07.849Z,37.62
2023-05-09T05:43:08.053Z,35.18
2023-05-09T05:44:07.860Z,31.25
2023-05-09T05:45:07.855Z,31.33
2023-05-09T05:46:07.894Z,29.98
2023-05-09T05:47:11.252Z,33.72
2023-05-09T05:48:08.122Z,33.77
2023-05-09T05:49:07.858Z,30.05
2023-05-09T05:50:07.843Z,30.73
2023-05-09T05:51:07.848Z,30.71
2023-05-09T05:52:07.828Z,30.17
2023-05-09T12:42:04.380Z,25.00
2023-05-09T12:43:05.242Z,25.00
2023-05-09T12:44:05.242Z,25.00
2023-05-09T12:45:05.468Z,25.00
2023-05-09T12:46:05.248Z,25.00
2023-05-09T12:47:05.326Z,23.39
2023-05-09T12:48:05.314Z,14.72
2023-05-09T12:49:05.230Z,24.47
2023-05-09T12:50:05.469Z,25.00
2023-05-09T12:51:05.212Z,32.96
2023-05-09T12:52:08.394Z,28.16
2023-05-09T12:53:05.316Z,29.16
2023-05-09T12:54:05.410Z,35.04
2023-05-09T12:55:05.445Z,53.62
2023-05-09T12:56:05.498Z,81.16
2023-05-09T12:57:05.559Z,124.59
2023-05-09T12:58:05.655Z,120.46
2023-05-09T12:59:05.679Z,120.36
2023-05-09T13:00:05.999Z,118.92
2023-05-09T13:01:05.761Z,142.64
2023-05-09T13:02:05.865Z,149.02
2023-05-09T13:03:05.937Z,155.77
2023-05-09T13:04:05.882Z,151.37
2023-05-09T13:05:05.913Z,106.38
2023-05-09T13:06:05.920Z,98.41
2023-05-09T13:07:05.971Z,90.97
2023-05-09T13:08:06.025Z,72.22
2023-05-09T13:09:06.352Z,72.02
2023-05-09T13:10:06.147Z,50.82
2023-05-09T13:11:15.566Z,42.89
2023-05-09T13:12:07.451Z,43.10
2023-05-09T13:13:09.570Z,37.16
2023-05-09T13:14:06.185Z,34.37
2023-05-09T13:15:06.543Z,21.68
2023-05-09T13:16:08.187Z,13.29
2023-05-09T13:17:06.259Z,42.90
2023-05-09T13:18:06.198Z,39.81
2023-05-09T13:19:06.133Z,12.34
2023-05-09T13:20:06.451Z,24.77
2023-05-09T13:21:06.155Z,16.44
2023-05-09T13:22:06.115Z,27.09
2023-05-09T13:23:06.113Z,27.89
2023-05-09T13:24:06.101Z,25.06
2023-05-09T13:25:06.169Z,24.35
2023-05-09T13:26:06.496Z,30.47
2023-05-09T13:27:06.098Z,27.61
2023-05-09T13:28:06.522Z,40.45
2023-05-09T13:29:06.212Z,34.38
2023-05-09T13:30:06.056Z,28.75
2023-05-09T13:31:06.530Z,28.71
2023-05-09T13:32:06.026Z,36.27
2023-05-09T13:33:16.580Z,39.21
2023-05-09T13:34:06.004Z,39.53
2023-05-09T13:35:05.993Z,40.48
2023-05-09T13:36:06.471Z,42.94
2023-05-09T13:37:06.005Z,49.65
2023-05-09T13:38:06.456Z,70.76
2023-05-09T13:39:05.970Z,75.23
2023-05-09T13:40:05.970Z,52.34
2023-05-09T13:41:05.973Z,75.96
2023-05-09T13:42:05.942Z,120.29
2023-05-09T13:43:05.945Z,159.76
2023-05-09T13:44:05.931Z,176.01
2023-05-09T13:45:06.047Z,190.75
2023-05-09T13:46:05.966Z,204.89
2023-05-09T13:47:05.916Z,202.65
2023-05-09T13:48:06.052Z,209.77
2023-05-09T13:49:05.904Z,212.66
2023-05-09T13:50:05.902Z,221.03
2023-05-09T13:51:05.896Z,228.27
2023-05-09T13:52:05.902Z,235.74
2023-05-09T13:53:05.919Z,223.31
2023-05-09T13:54:05.930Z,223.84
2023-05-09T13:55:05.895Z,212.08
2023-05-09T13:56:06.016Z,209.82
2023-05-09T13:57:05.906Z,202.66
2023-05-09T13:58:05.988Z,190.35
2023-05-09T13:59:05.892Z,196.47
2023-05-09T14:00:05.890Z,199.51
2023-05-09T14:01:06.082Z,204.07
2023-05-09T14:02:05.951Z,192.61
2023-05-09T14:03:06.051Z,187.73
2023-05-09T14:04:05.968Z,196.13
2023-05-09T14:05:05.897Z,203.23
2023-05-09T14:06:05.902Z,204.96
2023-05-09T14:07:05.896Z,216.63
2023-05-09T14:08:05.892Z,218.51
2023-05-09T14:09:05.891Z,240.62
2023-05-09T14:10:16.214Z,249.96
2023-05-09T14:11:05.982Z,250.47
2023-05-09T14:12:05.890Z,253.53
2023-05-09T14:13:05.955Z,258.39
2023-05-09T14:14:05.896Z,265.73
2023-05-09T14:15:05.903Z,275.84
2023-05-09T14:16:05.965Z,250.00
2023-05-09T14:17:06.057Z,249.42
2023-05-09T14:18:05.955Z,247.90
2023-05-09T14:19:05.931Z,249.12
2023-05-09T14:20:05.931Z,249.78
2023-05-09T14:21:05.936Z,250.00
2023-05-09T14:22:05.932Z,250.00
2023-05-09T14:23:05.930Z,248.82
2023-05-09T14:24:05.934Z,248.66
2023-05-09T14:25:05.948Z,250.15
2023-05-09T14:26:05.957Z,249.25
2023-05-09T14:27:05.959Z,247.25
2023-05-09T14:28:05.963Z,247.65
2023-05-09T14:29:05.975Z,248.88
2023-05-09T14:30:06.000Z,244.80
2023-05-09T14:31:06.021Z,238.31
2023-05-09T14:32:05.992Z,237.76
2023-05-09T14:33:06.117Z,234.46
2023-05-09T14:34:06.004Z,228.25
2023-05-09T14:35:06.054Z,222.35
2023-05-09T14:36:06.001Z,220.98
2023-05-09T14:37:05.997Z,223.21
2023-05-09T14:38:06.001Z,223.96
2023-05-09T14:39:06.010Z,221.81
2023-05-09T14:40:06.011Z,216.69
2023-05-09T14:41:06.021Z,211.29
2023-05-09T14:42:06.020Z,211.23
2023-05-09T14:43:06.021Z,208.34
2023-05-09T14:44:06.035Z,208.59
2023-05-09T14:45:06.046Z,208.69
2023-05-09T14:46:06.054Z,209.56
2023-05-09T14:47:06.185Z,207.31
2023-05-09T14:48:06.125Z,205.14
2023-05-09T14:49:06.221Z,203.10
2023-05-09T14:50:06.091Z,203.33
2023-05-09T14:51:06.098Z,206.41
2023-05-09T14:52:06.112Z,200.14
2023-05-09T14:53:06.112Z,196.65
2023-05-09T14:54:06.127Z,199.00
2023-05-09T14:55:06.134Z,197.45
2023-05-09T14:56:06.138Z,188.82
2023-05-09T14:57:06.152Z,191.13
2023-05-09T14:58:06.167Z,185.95
2023-05-09T14:59:06.164Z,191.93
2023-05-09T15:00:19.743Z,183.15
2023-05-09T15:01:06.208Z,183.29
2023-05-09T15:02:06.210Z,183.30
2023-05-09T15:03:06.260Z,184.52
2023-05-09T15:04:06.233Z,179.64
2023-05-09T15:05:06.360Z,178.81
2023-05-09T15:06:06.251Z,179.96
2023-05-09T15:07:06.251Z,175.79
2023-05-09T15:08:06.274Z,173.41
2023-05-09T15:09:06.286Z,174.22
2023-05-09T15:10:06.515Z,175.07
2023-05-09T15:11:06.304Z,172.72
2023-05-09T15:12:06.330Z,179.82
2023-05-09T15:13:06.377Z,173.36
2023-05-09T15:14:06.344Z,174.73
2023-05-09T15:15:06.360Z,174.84
2023-05-09T15:16:06.397Z,172.54
2023-05-09T15:17:06.423Z,172.88
2023-05-09T15:18:06.390Z,175.85
2023-05-09T15:19:06.396Z,177.08
2023-05-09T15:20:06.412Z,173.87
2023-05-09T15:21:06.558Z,176.54
2023-05-09T15:22:06.430Z,173.83
2023-05-09T15:23:06.465Z,178.65
2023-05-09T15:24:06.445Z,180.51
2023-05-09T15:25:06.495Z,180.00
2023-05-09T15:26:06.468Z,182.37
2023-05-09T15:27:06.470Z,181.15
2023-05-09T15:28:06.486Z,183.69
2023-05-09T15:29:06.505Z,175.32
2023-05-09T15:30:06.517Z,180.47
2023-05-09T15:31:06.629Z,184.68
2023-05-09T15:32:06.551Z,180.90
2023-05-09T15:33:06.601Z,186.02
2023-05-09T15:34:06.562Z,189.11
2023-05-09T15:35:06.585Z,184.85
2023-05-09T15:36:06.583Z,187.57
2023-05-09T15:37:06.721Z,190.46
2023-05-09T15:38:06.600Z,186.64
2023-05-09T15:39:06.601Z,188.77
2023-05-09T15:40:06.640Z,187.22
2023-05-09T15:41:06.637Z,187.91
2023-05-09T15:42:06.662Z,188.76
2023-05-09T15:43:08.257Z,189.57
2023-05-09T15:44:06.724Z,193.17
2023-05-09T15:45:06.747Z,194.05
2023-05-09T15:46:06.763Z,196.25
2023-05-09T15:47:06.754Z,189.26
2023-05-09T15:48:06.829Z,192.27
2023-05-09T15:49:06.770Z,189.93
2023-05-09T15:50:06.787Z,191.04
2023-05-09T15:51:06.812Z,191.71
2023-05-09T15:52:06.804Z,195.83
2023-05-09T15:53:07.000Z,192.58
2023-05-09T15:54:06.829Z,194.70
2023-05-09T15:55:06.987Z,196.62
2023-05-09T15:56:06.843Z,199.32
2023-05-09T15:57:06.870Z,198.44
2023-05-09T15:58:06.860Z,197.43
2023-05-09T15:59:06.882Z,199.02
2023-05-09T16:00:06.896Z,203.49
2023-05-09T16:01:06.884Z,199.61
2023-05-09T16:02:07.010Z,200.37
2023-05-09T16:03:06.944Z,205.57
2023-05-09T16:04:06.925Z,203.36
2023-05-09T16:05:06.921Z,199.97
2023-05-09T16:06:06.943Z,199.97
2023-05-09T16:07:06.949Z,200.32
2023-05-09T16:08:06.960Z,200.80
2023-05-09T16:09:07.143Z,204.92
2023-05-09T16:10:06.984Z,205.10
2023-05-09T16:11:07.000Z,204.40
2023-05-09T16:12:07.004Z,202.54
2023-05-09T16:13:07.039Z,204.76
2023-05-09T16:14:07.098Z,208.66
2023-05-09T16:15:07.040Z,206.39
2023-05-09T16:16:07.100Z,206.64
2023-05-09T16:17:07.076Z,211.10
2023-05-09T16:18:07.096Z,209.09
2023-05-09T16:19:07.109Z,210.96
2023-05-09T16:20:07.143Z,209.55
2023-05-09T16:21:07.222Z,212.20
2023-05-09T16:22:07.263Z,209.71
2023-05-09T16:23:07.320Z,212.13
2023-05-09T16:24:07.379Z,215.02
2023-05-09T16:25:07.581Z,215.09
2023-05-09T16:26:08.031Z,214.42
2023-05-09T16:27:07.597Z,212.20
2023-05-09T16:28:07.643Z,213.89
2023-05-09T16:29:07.715Z,215.82
2023-05-09T16:30:07.798Z,216.49
2023-05-09T16:31:07.911Z,214.15
2023-05-09T16:32:07.996Z,216.85
2023-05-09T16:33:08.036Z,216.52
2023-05-09T16:34:08.098Z,214.31
2023-05-09T16:35:08.187Z,216.68
2023-05-09T16:36:08.212Z,218.94
2023-05-09T16:37:08.292Z,218.12
2023-05-09T16:38:08.348Z,219.94
2023-05-09T16:39:08.418Z,219.21
2023-05-09T16:40:08.490Z,220.08
2023-05-09T16:41:08.694Z,220.65
2023-05-09T16:42:08.649Z,221.14
2023-05-09T16:43:08.710Z,220.68
2023-05-09T16:44:08.787Z,220.56
2023-05-09T16:45:08.847Z,222.30
2023-05-09T16:46:08.954Z,222.40
2023-05-09T16:47:09.029Z,224.29
2023-05-09T16:48:09.131Z,225.82
2023-05-09T16:49:09.146Z,226.00
2023-05-09T16:50:09.219Z,223.32
2023-05-09T16:51:09.294Z,223.39
2023-05-09T16:52:09.390Z,224.19
2023-05-09T16:53:09.401Z,223.20
2023-05-09T16:54:09.439Z,223.89
2023-05-09T16:55:09.490Z,223.96
2023-05-09T16:56:09.564Z,220.91
2023-05-09T16:57:09.790Z,226.14
2023-05-09T16:58:09.641Z,222.57
2023-05-09T16:59:11.300Z,224.22
2023-05-09T17:00:09.853Z,228.77
2023-05-09T17:01:09.947Z,224.38
2023-05-09T17:02:09.902Z,224.10
2023-05-09T17:03:09.990Z,224.84
2023-05-09T17:04:10.077Z,225.48
2023-05-09T17:05:10.111Z,225.64
2023-05-09T17:06:10.186Z,228.08
2023-05-09T17:07:10.250Z,226.31
2023-05-09T17:08:10.330Z,227.99
2023-05-09T17:09:10.411Z,227.63
2023-05-09T17:10:10.482Z,226.52
2023-05-09T17:11:10.559Z,226.77
2023-05-09T17:12:10.684Z,227.24
2023-05-09T17:13:10.851Z,225.72
2023-05-09T17:14:10.785Z,229.89
2023-05-09T17:15:10.857Z,226.81
2023-05-09T17:16:11.167Z,230.96
2023-05-09T17:17:11.010Z,231.04
2023-05-09T17:18:12.237Z,227.13
2023-05-09T17:19:11.106Z,230.74
2023-05-09T17:20:11.116Z,233.54
2023-05-09T17:21:11.132Z,230.39
2023-05-09T17:22:11.147Z,232.29
2023-05-09T17:23:11.148Z,232.18
2023-05-09T17:24:11.181Z,229.89
2023-05-09T17:25:11.177Z,229.32
2023-05-09T17:26:11.203Z,232.14
2023-05-09T17:27:11.200Z,232.11
2023-05-09T17:28:11.207Z,234.54
2023-05-09T17:29:11.342Z,232.92
2023-05-09T17:30:11.239Z,232.87
2023-05-09T17:31:11.282Z,230.95
2023-05-09T17:32:11.257Z,232.63
2023-05-09T17:33:11.268Z,230.95
2023-05-09T17:34:11.304Z,233.83
2023-05-09T17:35:11.278Z,235.12
2023-05-09T17:36:11.286Z,235.72
2023-05-09T17:37:11.299Z,232.46
2023-05-09T17:38:11.353Z,236.29
2023-05-09T17:39:11.315Z,231.07
2023-05-09T17:40:11.345Z,232.92
2023-05-09T17:41:11.346Z,234.81
2023-05-09T17:42:12.286Z,237.55
2023-05-09T17:43:11.401Z,234.75
2023-05-09T17:44:11.475Z,235.01
2023-05-09T17:45:11.679Z,238.28
2023-05-09T17:46:11.645Z,237.22
2023-05-09T17:47:11.687Z,237.10
2023-05-09T17:48:11.762Z,236.03
2023-05-09T17:49:11.839Z,235.78
2023-05-09T17:50:11.918Z,235.36
2023-05-09T17:51:11.988Z,239.53
2023-05-09T17:52:12.072Z,236.09
2023-05-09T17:53:12.146Z,237.11
2023-05-09T17:54:12.209Z,239.39
2023-05-09T17:55:12.294Z,241.10
2023-05-09T17:56:12.372Z,235.57
2023-05-09T17:57:12.447Z,237.66
2023-05-09T17:58:12.609Z,241.08
2023-05-09T17:59:12.598Z,237.78
2023-05-09T18:00:12.762Z,239.20
2023-05-09T18:01:12.906Z,240.86
2023-05-09T18:02:12.779Z,241.79
2023-05-09T18:03:12.949Z,239.63
2023-05-09T18:04:12.937Z,239.48
2023-05-09T18:05:13.002Z,241.94
2023-05-09T18:06:13.081Z,240.58
2023-05-09T18:07:13.149Z,240.00
2023-05-09T18:08:13.223Z,239.43
2023-05-09T18:09:13.302Z,240.19
2023-05-09T18:10:13.609Z,240.50
2023-05-09T18:11:13.452Z,241.91
2023-05-09T18:12:13.517Z,243.04
2023-05-09T18:13:13.592Z,241.85
2023-05-09T18:14:13.653Z,240.85
2023-05-09T18:15:13.704Z,242.50
2023-05-09T18:16:13.867Z,244.32
2023-05-09T18:17:13.996Z,238.36
2023-05-09T18:18:15.038Z,239.98
2023-05-09T18:19:14.794Z,240.12
2023-05-09T18:20:14.361Z,242.81
2023-05-09T18:21:14.126Z,245.60
2023-05-09T18:22:14.256Z,244.99
2023-05-09T18:23:14.244Z,245.77
2023-05-09T18:24:16.326Z,242.99
2023-05-09T18:25:14.306Z,245.56
2023-05-09T18:26:14.316Z,244.48
2023-05-09T18:27:14.317Z,246.97
2023-05-09T18:28:14.325Z,242.00
2023-05-09T18:29:14.334Z,243.85
2023-05-09T18:30:14.470Z,244.93
2023-05-09T18:31:14.384Z,246.58
2023-05-09T18:32:14.389Z,244.79
2023-05-09T18:33:14.491Z,244.14
2023-05-09T18:34:14.399Z,242.98
2023-05-09T18:35:14.383Z,243.73
2023-05-09T18:36:14.417Z,244.50
2023-05-09T18:37:14.426Z,246.20
2023-05-09T18:38:14.409Z,246.94
2023-05-09T18:39:14.413Z,245.77
2023-05-09T18:40:14.761Z,242.24
2023-05-09T18:41:14.434Z,246.17
2023-05-09T18:42:16.177Z,247.57
2023-05-09T18:43:14.451Z,242.53
2023-05-09T18:44:14.458Z,246.24
2023-05-09T18:45:14.468Z,245.21
2023-05-09T18:46:14.485Z,245.10
2023-05-09T18:47:14.525Z,245.70
2023-05-09T18:48:14.493Z,243.79
2023-05-09T18:49:14.626Z,243.48
2023-05-09T18:50:14.829Z,244.77
2023-05-09T18:51:14.537Z,245.82
2023-05-09T18:52:14.527Z,243.18
2023-05-09T18:53:14.534Z,245.40
2023-05-09T18:54:14.538Z,241.26
2023-05-09T18:55:14.552Z,243.02
2023-05-09T18:56:14.568Z,243.75
2023-05-09T18:57:14.565Z,243.59
2023-05-09T18:58:14.578Z,241.29
2023-05-09T18:59:14.584Z,243.62
2023-05-09T19:00:14.867Z,242.28
2023-05-09T19:01:14.635Z,246.33
2023-05-09T19:02:14.617Z,244.51
2023-05-09T19:03:14.625Z,242.91
2023-05-09T19:04:14.668Z,243.71
2023-05-09T19:05:14.762Z,244.66
2023-05-09T19:06:14.643Z,244.62
2023-05-09T19:07:14.648Z,243.74
2023-05-09T19:08:14.657Z,245.53
2023-05-09T19:09:14.671Z,245.18
2023-05-09T19:10:14.980Z,247.67
2023-05-09T19:11:14.693Z,244.86
2023-05-09T19:12:14.711Z,245.85
2023-05-09T19:13:16.556Z,245.39
2023-05-09T19:14:14.714Z,244.55
2023-05-09T19:15:14.726Z,246.93
2023-05-09T19:16:14.743Z,245.93
2023-05-09T19:17:14.746Z,247.29
2023-05-09T19:18:14.812Z,246.53
2023-05-09T19:19:14.762Z,247.86
2023-05-09T19:20:15.044Z,247.02
2023-05-09T19:21:14.804Z,245.70
2023-05-09T19:22:14.792Z,245.87
2023-05-09T19:23:14.813Z,245.68
2023-05-09T19:24:14.818Z,246.48
2023-05-09T19:25:14.833Z,249.06
2023-05-09T19:26:14.839Z,245.28
2023-05-09T19:27:14.855Z,244.13
2023-05-09T19:28:14.887Z,245.02
2023-05-09T19:29:14.887Z,246.60
2023-05-09T19:30:15.160Z,246.15
2023-05-09T19:31:15.060Z,248.32